Ride Results

New Italy Fundraiser (13-10-2018)
Ride distance: 80.0 km

Outcomes - New Italy Fundraiser (13-10-2018)
Division No. of Entries Retired / DNE Completed Withdrawn Ineligible V/O Percentage Completed
HW 7 - 6 - - 1 85.71%
MW 11 - 8 1 - 2 72.73%
LW 6 - 6 - - - 100.00%
JN 5 - 5 - - - 100.00%
Totals 29 - 25 1 - 3 86.21%
Results - New Italy Fundraiser (13-10-2018)
No. Rider Horse Place Time Leg Speeds Total
Km/Hr
H/R bpm
Heavyweight
15 Greg Lyon Chingford Just Dreaming 1 (BC) 4:41:00 17.7, 16.4 17.08 41, 45, 44 (Avg:44)
25 Matthew Gadsby Maximus Ra 2 6:17:00 13.0, 12.4 12.73 35, 43, 53 (Avg:48)
24 Lester Pahl Chappell Park Bella 3 6:18:00 12.4, 12.9 12.70 33, 37, 45 (Avg:41)
14 Jago Blonde Kynnum Park Jai 4 6:19:00 13.4, 11.9 12.66 61, 47, 51 (Avg:49)
12 Keith Sumpner Fonda 5 6:42:00 14.9, 9.9 11.94 48, 50, 51 (Avg:50)
30 Gerard Bou Neon 6 6:43:00 12.6, 11.2 11.91 38, 49, 51 (Avg:50)
20 Olaf Lochtenberg Matta Mia Dayimi Lame L2 0:00:00 13.1, 13.2 - 38, 41, 52 (Avg:46)
Middleweight
28 Cora Becker Undurra Zorro 1 (BC) 4:47:00 17.7, 15.7 16.72 48, 41, 45 (Avg:43)
9 Lisa Loranger Bacchante Dakota 2 6:13:00 13.1, 12.5 12.87 37, 52, 50 (Avg:51)
3 Ash Waite De-Sharvarll El Dakar 3 6:19:00 12.4, 12.9 12.66 38, 41, 48 (Avg:44)
10 Jane Davidson Kaleba Barjuma 4 6:25:00 12.3, 12.5 12.47 39, 44, 48 (Avg:46)
31 Renae Kuhn East-Lynne Sahashi 5 6:43:00 12.6, 11.2 11.91 36, 42, 46 (Avg:44)
17 Nancy Kirkwood Storm 6 7:01:00 10.6, 12.2 11.40 52, 46, 49 (Avg:47)
5 Bec Cronin Petama Springtime Jewel 7 7:35:00 12.1, 9.3 10.55 34, 44, 44 (Avg:44)
16 Angela Head Hartfield Mekkah's Springbokk 8 7:37:00 11.2, 9.8 10.50 39, 44, 48 (Avg:46)
11 Damien Keys Elfar Linc Lame L2 0:00:00 12.9, 11.7 - 34, 43, 47 (Avg:45)
26 Johann Willemse Lailarni Jewel Withdrawn L2 0:00:00 - - 49, 42, 50 (Avg:46)
23 Karen Lee Markus Romulus Lame L1 0:00:00 21.8 - 39, 51 (Avg:51)
Lightweight
6 Xanthe Webb Keiko Kashmir Sapphire 1 (BC) 4:48:00 16.5, 16.7 16.67 49, 49, 50 (Avg:49)
13 Tracey Hutchinson Garnee Viper 2 6:13:00 13.1, 12.5 12.87 42, 49, 50 (Avg:49)
27 Mindy Davies Cearadale Saahara 3 6:17:00 13.0, 12.4 12.73 32, 42, 46 (Avg:44)
21 Cathy Ferguson Red Capri 4 6:25:00 12.3, 12.5 12.47 33, 38, 39 (Avg:38)
29 Natasha Bryman Heathfield's Khalukey 5 6:33:00 13.1, 11.3 12.21 40, 42, 44 (Avg:43)
4 Gemma Sutcliffe Boonara Captain Maximus 6 7:00:00 12.4, 10.5 11.43 35, 35, 34 (Avg:34)
Junior
2 Ben Hoey Performance Park Illusion 1 4:45:00 16.5, 17.1 16.84 31, 45, 49 (Avg:47)
8 Maeve Paten Bahrein Zambique 2 4:46:00 16.5, 17.0 16.78 45, 40, 43 (Avg:41)
7 Elexis Webb Envious te 2 (BC) 4:46:00 16.5, 17.0 16.78 45, 36, 38 (Avg:37)
19 Tahlea Lochtenberg Henley Farm Nadif 4 6:04:00 13.1, 13.2 13.19 49, 42, 51 (Avg:46)
22 Aimee Jeffrey Earl 5 6:25:00 12.3, 12.5 12.47 44, 50, 52 (Avg:51)